Time;durP1;ratioP1;P1;durP2;ratioP2;P2;SDS_P1;SDS_P2;PMS_P1;PMS_P2;Temp;Humidity;BMP_temperature;BMP_pressure;BME280_temperature;BME280_humidity;BME280_pressure;Samples;Min_cycle;Max_cycle;Signal;HPM_P1;HPM_P2
2021/10/09 00:02:17;;;;;;;47.92;38.08;;;9.60;89.90;;;;;;4983483;28;20038;-75
2021/10/09 00:04:42;;;;;;;45.33;36.60;;;9.60;90.00;;;;;;4981983;28;20569;-73
2021/10/09 00:07:08;;;;;;;45.65;36.03;;;9.60;90.00;;;;;;4983901;28;20116;-74
2021/10/09 00:09:34;;;;;;;48.60;37.42;;;9.50;90.00;;;;;;4985161;28;20117;-73
2021/10/09 00:12:00;;;;;;;47.28;36.53;;;9.50;90.00;;;;;;4983479;28;20038;-73
2021/10/09 00:14:26;;;;;;;48.35;35.70;;;9.50;90.10;;;;;;4984594;28;20124;-76
2021/10/09 00:16:53;;;;;;;46.42;34.17;;;9.50;90.20;;;;;;4981938;28;20034;-77
2021/10/09 00:19:19;;;;;;;42.22;32.20;;;9.50;90.20;;;;;;4980712;28;20061;-73
2021/10/09 00:21:45;;;;;;;44.17;34.28;;;9.40;90.20;;;;;;4984635;28;20462;-74
2021/10/09 00:24:16;;;;;;;43.30;33.35;;;9.40;90.30;;;;;;4986468;28;20478;-73
2021/10/09 00:26:44;;;;;;;46.47;35.85;;;9.40;90.30;;;;;;4985036;28;20048;-73
2021/10/09 00:29:11;;;;;;;45.08;35.20;;;9.30;90.20;;;;;;4983221;28;20482;-74
2021/10/09 00:31:37;;;;;;;45.05;33.60;;;9.30;90.20;;;;;;4977325;28;20659;-73
2021/10/09 00:34:04;;;;;;;46.42;34.70;;;9.20;90.20;;;;;;4982287;28;20077;-73
2021/10/09 00:36:30;;;;;;;42.15;33.80;;;9.20;90.10;;;;;;4984149;28;20054;-73
2021/10/09 00:38:57;;;;;;;43.92;34.17;;;9.20;90.10;;;;;;4983741;28;20140;-81
2021/10/09 00:41:23;;;;;;;44.22;33.35;;;9.10;90.00;;;;;;4977700;28;20226;-74
2021/10/09 00:43:49;;;;;;;44.05;33.28;;;9.10;90.00;;;;;;4984899;28;20447;-78
2021/10/09 00:46:15;;;;;;;40.58;32.70;;;9.10;89.90;;;;;;4980195;28;20045;-72
2021/10/09 00:48:42;;;;;;;41.03;32.72;;;9.10;89.80;;;;;;4985352;28;20032;-73
2021/10/09 00:51:08;;;;;;;44.33;33.17;;;9.10;89.90;;;;;;4978869;28;20039;-74
2021/10/09 00:53:36;;;;;;;37.95;31.42;;;9.00;89.90;;;;;;4980777;28;20031;-73
2021/10/09 00:56:03;;;;;;;39.13;30.88;;;9.00;89.90;;;;;;4991886;28;20034;-73
2021/10/09 00:58:29;;;;;;;39.25;30.27;;;9.00;89.80;;;;;;5002471;28;20049;-73
2021/10/09 01:00:55;;;;;;;40.08;32.80;;;9.00;89.70;;;;;;5004119;28;20425;-73
2021/10/09 01:03:23;;;;;;;41.50;32.42;;;9.00;89.70;;;;;;5007633;28;20042;-73
2021/10/09 01:05:49;;;;;;;38.78;30.02;;;8.90;89.60;;;;;;5009316;28;20037;-73
2021/10/09 01:08:15;;;;;;;39.95;30.67;;;8.80;89.60;;;;;;5005941;28;20545;-74
2021/10/09 01:10:41;;;;;;;36.78;29.35;;;8.80;89.60;;;;;;5006436;28;20030;-77
2021/10/09 01:13:07;;;;;;;36.78;29.25;;;8.80;89.70;;;;;;5003160;28;20080;-73
2021/10/09 01:15:35;;;;;;;36.85;29.38;;;8.80;89.60;;;;;;5003282;28;20053;-73
2021/10/09 01:18:17;;;;;;;41.70;31.60;;;8.80;89.70;;;;;;4999462;28;20436;-74
2021/10/09 01:20:54;;;;;;;41.85;31.88;;;8.80;89.70;;;;;;5003885;28;20041;-73
2021/10/09 01:23:21;;;;;;;40.35;30.92;;;8.80;89.70;;;;;;5006662;28;20080;-73
2021/10/09 01:25:48;;;;;;;38.90;30.98;;;8.80;89.70;;;;;;5009507;28;20038;-73
2021/10/09 01:28:14;;;;;;;38.15;30.20;;;8.80;89.80;;;;;;5007052;28;20053;-73
2021/10/09 01:30:40;;;;;;;43.55;34.40;;;8.80;89.80;;;;;;5004526;28;20030;-73
2021/10/09 01:33:08;;;;;;;43.25;32.45;;;8.80;89.90;;;;;;5006021;28;20080;-78
2021/10/09 01:35:49;;;;;;;39.83;31.25;;;8.80;89.90;;;;;;5002450;28;20026;-74
2021/10/09 01:38:15;;;;;;;38.20;30.08;;;8.80;90.00;;;;;;5001761;28;20031;-73
2021/10/09 01:40:41;;;;;;;38.15;30.23;;;8.80;90.00;;;;;;5002588;28;20366;-73
2021/10/09 01:43:11;;;;;;;38.45;29.15;;;8.80;90.10;;;;;;5005892;28;20515;-74
2021/10/09 01:45:40;;;;;;;40.17;30.70;;;8.80;90.10;;;;;;5012850;28;20030;-72
2021/10/09 01:48:06;;;;;;;38.00;30.90;;;8.80;90.10;;;;;;5005849;28;20052;-80
2021/10/09 01:50:32;;;;;;;38.30;30.80;;;8.80;90.20;;;;;;5008999;28;20025;-74
2021/10/09 01:52:59;;;;;;;40.40;33.13;;;8.80;90.20;;;;;;5010978;28;20037;-71
2021/10/09 01:55:25;;;;;;;44.72;34.45;;;8.80;90.30;;;;;;5005021;28;20050;-72
2021/10/09 01:57:52;;;;;;;42.55;33.42;;;8.80;90.40;;;;;;4999874;28;20026;-73
2021/10/09 02:00:19;;;;;;;48.75;36.80;;;8.80;90.40;;;;;;5005406;28;20034;-73
2021/10/09 02:02:45;;;;;;;45.33;34.95;;;8.80;90.50;;;;;;5003315;28;20042;-73
2021/10/09 02:05:12;;;;;;;44.08;33.88;;;8.80;90.50;;;;;;4992042;28;20038;-78
2021/10/09 02:07:38;;;;;;;45.55;34.10;;;8.80;90.60;;;;;;4982294;28;20054;-76
2021/10/09 02:10:04;;;;;;;42.83;34.05;;;8.80;90.60;;;;;;4981593;28;20667;-73
2021/10/09 02:12:32;;;;;;;40.15;31.65;;;8.80;90.60;;;;;;4979535;28;20038;-73
2021/10/09 02:15:36;;;;;;;43.35;34.40;;;8.80;90.70;;;;;;4980135;28;20050;-73
2021/10/09 02:26:03;;;;;;;44.20;34.75;;;8.70;91.00;;;;;;5001101;28;20045;-73
2021/10/09 02:28:30;;;;;;;44.30;35.30;;;8.60;91.00;;;;;;4999392;28;20054;-73
2021/10/09 02:30:55;;;;;;;50.53;38.60;;;8.70;91.10;;;;;;5002048;28;20049;-77
2021/10/09 02:33:22;;;;;;;50.85;39.35;;;8.70;91.20;;;;;;4998085;28;20045;-73
2021/10/09 02:35:48;;;;;;;51.10;37.08;;;8.70;91.30;;;;;;5004019;28;20057;-72
2021/10/09 02:38:14;;;;;;;48.55;39.17;;;8.70;91.40;;;;;;4997960;28;20045;-73
2021/10/09 02:40:41;;;;;;;48.97;38.55;;;8.70;91.40;;;;;;5001337;28;20107;-78
2021/10/09 02:43:07;;;;;;;49.17;38.85;;;8.70;91.40;;;;;;5004766;28;20034;-76
2021/10/09 02:45:33;;;;;;;47.65;39.50;;;8.70;91.50;;;;;;5010722;28;20045;-75
2021/10/09 02:48:00;;;;;;;49.17;38.72;;;8.70;91.60;;;;;;5006618;28;20410;-73
2021/10/09 02:50:26;;;;;;;44.55;36.20;;;8.70;91.60;;;;;;5004101;28;20069;-72
2021/10/09 02:52:52;;;;;;;45.78;37.40;;;8.70;91.60;;;;;;5008023;28;20403;-72
2021/10/09 02:55:19;;;;;;;46.03;37.60;;;8.70;91.60;;;;;;5005848;28;20065;-73
2021/10/09 02:57:46;;;;;;;45.35;37.15;;;8.70;91.70;;;;;;5006373;28;20054;-73
2021/10/09 03:00:13;;;;;;;43.95;35.53;;;8.60;91.70;;;;;;5005014;28;20050;-73
2021/10/09 03:02:40;;;;;;;45.05;36.67;;;8.60;91.70;;;;;;5005084;28;20168;-72
2021/10/09 03:05:07;;;;;;;43.60;36.25;;;8.60;91.70;;;;;;5000931;28;20465;-75
2021/10/09 03:07:34;;;;;;;43.70;35.22;;;8.50;91.60;;;;;;5001754;28;20051;-73
2021/10/09 03:10:00;;;;;;;43.60;34.67;;;8.50;91.60;;;;;;5012036;28;20290;-73
2021/10/09 03:12:26;;;;;;;43.72;35.03;;;8.40;91.60;;;;;;5001315;28;20517;-73
2021/10/09 03:14:52;;;;;;;42.40;34.40;;;8.30;91.50;;;;;;5007856;28;20049;-73
2021/10/09 03:17:19;;;;;;;43.42;35.65;;;8.30;91.70;;;;;;5007228;28;20474;-79
2021/10/09 03:19:45;;;;;;;39.22;32.70;;;8.30;91.50;;;;;;5000465;28;20037;-73
2021/10/09 03:22:11;;;;;;;43.03;34.28;;;8.30;91.50;;;;;;5004842;28;20033;-75
2021/10/09 03:24:37;;;;;;;41.53;33.10;;;8.20;91.50;;;;;;5005746;28;20104;-73
2021/10/09 03:27:02;;;;;;;38.72;31.20;;;8.20;91.50;;;;;;5003275;28;20041;-73
2021/10/09 03:29:28;;;;;;;41.80;33.65;;;8.20;91.50;;;;;;5005756;28;20080;-72
2021/10/09 03:31:55;;;;;;;46.00;36.70;;;8.10;91.50;;;;;;5003126;28;20034;-72
2021/10/09 03:34:20;;;;;;;44.25;36.38;;;8.10;91.50;;;;;;5006548;28;20068;-74
2021/10/09 03:36:46;;;;;;;42.53;34.60;;;8.10;91.60;;;;;;5003226;28;20121;-79
2021/10/09 03:39:16;;;;;;;44.53;36.67;;;8.20;91.60;;;;;;5004710;28;20054;-80
2021/10/09 03:41:47;;;;;;;43.22;35.80;;;8.20;91.70;;;;;;5006990;28;20453;-73
2021/10/09 03:44:13;;;;;;;45.95;36.65;;;8.20;91.70;;;;;;5006647;28;20397;-73
2021/10/09 03:46:58;;;;;;;50.95;41.10;;;8.20;91.80;;;;;;5008090;28;20091;-74
2021/10/09 03:49:40;;;;;;;50.30;41.53;;;8.20;91.90;;;;;;5002782;28;20496;-73
2021/10/09 03:54:51;;;;;;;53.20;42.38;;;8.30;92.00;;;;;;5003806;28;20088;-73
2021/10/09 03:57:17;;;;;;;49.00;40.08;;;8.40;92.20;;;;;;5004344;28;20438;-74
2021/10/09 03:59:43;;;;;;;50.10;40.75;;;8.40;92.10;;;;;;5002043;28;20054;-78
2021/10/09 04:02:09;;;;;;;54.25;41.40;;;8.40;92.10;;;;;;5002196;28;20080;-72
2021/10/09 04:04:35;;;;;;;52.00;42.58;;;8.40;92.10;;;;;;5004709;28;20038;-76
2021/10/09 04:07:00;;;;;;;53.67;42.95;;;8.40;92.20;;;;;;5004821;28;20478;-74
2021/10/09 04:09:26;;;;;;;57.65;47.38;;;8.40;92.30;;;;;;5005727;28;20029;-74
2021/10/09 04:11:52;;;;;;;59.55;47.80;;;8.40;92.40;;;;;;5002272;28;20049;-73
2021/10/09 04:14:18;;;;;;;60.10;46.65;;;8.50;92.60;;;;;;5004457;28;20445;-75
2021/10/09 04:16:44;;;;;;;57.08;45.92;;;8.60;92.50;;;;;;4998978;28;20441;-79
2021/10/09 04:19:11;;;;;;;55.60;45.28;;;8.50;92.50;;;;;;4996261;28;20379;-73
2021/10/09 04:21:37;;;;;;;62.47;45.85;;;8.50;92.50;;;;;;5006623;28;20046;-73
2021/10/09 04:24:03;;;;;;;58.03;45.72;;;8.50;92.60;;;;;;5001572;28;20037;-73
2021/10/09 04:26:29;;;;;;;65.38;49.70;;;8.50;92.50;;;;;;5007534;28;20034;-73
2021/10/09 04:28:55;;;;;;;59.85;46.65;;;8.40;92.60;;;;;;5005900;28;20054;-74
2021/10/09 04:31:21;;;;;;;55.35;44.17;;;8.40;92.70;;;;;;5003480;28;20053;-73
2021/10/09 04:33:48;;;;;;;53.40;42.55;;;8.40;92.70;;;;;;5003985;28;20038;-72
2021/10/09 04:36:14;;;;;;;53.13;42.45;;;8.40;92.70;;;;;;5003562;28;20040;-73
2021/10/09 04:38:40;;;;;;;51.60;39.78;;;8.30;92.70;;;;;;5003239;28;20347;-73
2021/10/09 04:41:06;;;;;;;51.95;40.72;;;8.20;92.70;;;;;;5004707;28;20036;-73
2021/10/09 04:43:32;;;;;;;52.60;42.83;;;8.20;92.80;;;;;;5001542;28;20038;-75
2021/10/09 04:45:58;;;;;;;55.80;46.22;;;8.20;92.90;;;;;;4981081;28;20446;-73
2021/10/09 04:48:24;;;;;;;62.80;49.92;;;8.20;93.00;;;;;;4977285;28;20046;-72
2021/10/09 04:50:50;;;;;;;64.80;50.10;;;8.20;93.00;;;;;;4979227;28;20385;-80
2021/10/09 04:53:17;;;;;;;60.08;48.88;;;8.30;93.20;;;;;;4985282;28;20042;-73
2021/10/09 04:55:43;;;;;;;60.35;48.25;;;8.30;93.20;;;;;;4987040;28;20049;-73
2021/10/09 04:58:09;;;;;;;59.67;46.65;;;8.30;93.20;;;;;;4985430;28;20035;-73
2021/10/09 05:00:35;;;;;;;56.83;45.53;;;8.30;93.20;;;;;;4979765;28;20042;-73
2021/10/09 05:03:01;;;;;;;63.47;47.60;;;8.30;93.20;;;;;;4983171;28;20045;-73
2021/10/09 05:05:28;;;;;;;61.88;48.10;;;8.20;93.20;;;;;;4990517;28;20042;-80
2021/10/09 05:07:53;;;;;;;70.65;53.38;;;8.20;93.30;;;;;;4986328;28;20045;-75
2021/10/09 05:10:20;;;;;;;70.50;50.85;;;8.20;93.30;;;;;;4983736;28;20026;-77
2021/10/09 05:12:46;;;;;;;67.78;51.58;;;8.20;93.40;;;;;;4978367;28;20369;-76
2021/10/09 05:15:12;;;;;;;72.10;52.88;;;8.20;93.30;;;;;;4983229;28;20034;-73
2021/10/09 05:17:39;;;;;;;69.97;50.83;;;8.20;93.30;;;;;;4984229;28;20061;-79
2021/10/09 05:20:06;;;;;;;69.20;51.65;;;8.20;93.30;;;;;;4981230;28;20050;-73
2021/10/09 05:22:32;;;;;;;71.00;50.28;;;8.20;93.40;;;;;;4984570;28;20030;-77
2021/10/09 05:24:59;;;;;;;66.60;50.13;;;8.10;93.40;;;;;;4983853;28;20066;-73
2021/10/09 05:27:26;;;;;;;63.67;48.67;;;8.20;93.40;;;;;;4977357;28;20054;-74
2021/10/09 05:29:52;;;;;;;74.63;55.00;;;8.20;93.40;;;;;;4979357;28;20502;-73
2021/10/09 05:32:26;;;;;;;71.32;52.03;;;8.10;93.40;;;;;;4983197;28;20049;-75
2021/10/09 05:34:52;;;;;;;71.32;52.58;;;8.10;93.40;;;;;;4988885;28;20035;-77
2021/10/09 05:37:18;;;;;;;69.38;52.42;;;8.20;93.50;;;;;;4988353;28;20078;-72
2021/10/09 05:39:44;;;;;;;81.90;57.20;;;8.20;93.60;;;;;;4979682;28;20031;-74
2021/10/09 05:42:10;;;;;;;74.85;55.15;;;8.20;93.60;;;;;;4984562;28;20081;-73
2021/10/09 05:44:37;;;;;;;75.40;56.05;;;8.20;93.70;;;;;;4982551;28;20062;-74
2021/10/09 05:47:03;;;;;;;79.15;58.60;;;8.30;93.80;;;;;;4983288;28;20080;-72
2021/10/09 05:49:30;;;;;;;78.80;60.47;;;8.40;93.80;;;;;;4988093;28;20376;-72
2021/10/09 05:52:11;;;;;;;78.38;58.35;;;8.40;93.90;;;;;;4983274;28;20058;-73
2021/10/09 05:54:57;;;;;;;148.10;63.05;;;8.50;93.90;;;;;;4994783;28;20091;-74
2021/10/09 05:57:33;;;;;;;84.72;58.13;;;8.60;94.00;;;;;;4989447;28;20026;-74
2021/10/09 07:00:28;;;;;;;87.78;64.15;;;9.00;93.80;;;;;;4983059;28;20053;-73
2021/10/09 07:02:54;;;;;;;83.97;62.47;;;9.00;93.70;;;;;;4986123;28;20035;-72
2021/10/09 07:05:19;;;;;;;78.05;62.22;;;9.10;93.80;;;;;;4978297;28;20093;-76
2021/10/09 07:07:55;;;;;;;77.57;61.75;;;9.10;93.80;;;;;;4981602;28;20382;-76
2021/10/09 07:10:21;;;;;;;114.75;62.75;;;9.20;93.70;;;;;;4981850;28;20049;-73
2021/10/09 07:12:47;;;;;;;87.85;57.97;;;9.20;93.60;;;;;;4984026;28;20043;-75
2021/10/09 07:15:15;;;;;;;69.70;57.75;;;9.20;93.50;;;;;;4977785;28;20051;-76
2021/10/09 07:17:41;;;;;;;107.95;66.32;;;9.20;93.50;;;;;;4981842;28;20070;-79
2021/10/09 07:20:08;;;;;;;76.72;61.58;;;9.30;93.40;;;;;;4984897;28;20027;-73
2021/10/09 07:22:34;;;;;;;177.00;63.35;;;9.30;93.40;;;;;;4978732;28;20113;-70
2021/10/09 07:25:01;;;;;;;78.35;56.00;;;9.30;93.20;;;;;;4981141;28;20038;-69
2021/10/09 07:27:28;;;;;;;163.90;61.25;;;9.40;93.20;;;;;;4981457;28;20039;-69
2021/10/09 07:29:55;;;;;;;138.60;61.15;;;9.40;93.10;;;;;;4977823;28;20134;-70
2021/10/09 07:32:21;;;;;;;115.70;58.00;;;9.40;93.00;;;;;;4983980;28;20053;-70
2021/10/09 07:34:48;;;;;;;80.88;59.60;;;9.40;92.90;;;;;;4986415;28;20034;-70
2021/10/09 07:37:14;;;;;;;75.13;54.85;;;9.40;93.00;;;;;;4984183;28;20126;-71
2021/10/09 07:39:40;;;;;;;187.75;67.40;;;9.50;93.00;;;;;;4981570;28;20149;-70
2021/10/09 07:42:06;;;;;;;104.40;63.85;;;9.60;92.90;;;;;;4983214;28;20027;-69
2021/10/09 07:44:32;;;;;;;125.43;86.65;;;9.60;92.90;;;;;;4986915;28;20037;-73
2021/10/09 07:46:58;;;;;;;116.20;74.68;;;9.70;92.90;;;;;;4982027;28;20157;-76
2021/10/09 07:49:24;;;;;;;92.85;80.95;;;9.90;92.90;;;;;;4981692;28;20051;-69
2021/10/09 07:51:50;;;;;;;77.80;58.58;;;9.90;92.60;;;;;;4983559;28;20475;-69
2021/10/09 07:54:17;;;;;;;68.35;60.45;;;10.00;92.40;;;;;;4986984;28;20080;-70
2021/10/09 07:56:43;;;;;;;68.28;59.17;;;10.10;92.40;;;;;;4980569;28;20070;-69
2021/10/09 07:59:10;;;;;;;69.97;54.55;;;10.20;92.60;;;;;;4987942;28;20077;-69
2021/10/09 08:01:36;;;;;;;61.22;54.03;;;10.30;92.50;;;;;;4985786;28;20069;-70
2021/10/09 08:04:03;;;;;;;66.55;59.47;;;10.40;92.20;;;;;;4984719;28;20042;-68
2021/10/09 08:06:30;;;;;;;95.45;49.35;;;10.50;91.90;;;;;;4986863;28;20035;-69
2021/10/09 08:08:55;;;;;;;79.82;47.67;;;10.50;91.30;;;;;;4981538;28;20038;-70
2021/10/09 08:11:21;;;;;;;75.10;49.20;;;10.20;90.80;;;;;;4984445;28;20114;-72
2021/10/09 08:13:48;;;;;;;56.53;46.90;;;10.10;90.90;;;;;;4984115;28;20040;-73
2021/10/09 08:16:13;;;;;;;72.53;51.40;;;10.20;91.30;;;;;;4986200;28;20026;-70
2021/10/09 08:18:41;;;;;;;65.70;51.50;;;10.30;91.60;;;;;;4985418;28;20489;-70
2021/10/09 08:21:08;;;;;;;62.33;51.30;;;10.30;91.40;;;;;;4984967;28;20031;-70
2021/10/09 08:36:18;;;;;;;71.47;51.38;;;10.50;90.50;;;;;;5001274;28;20029;-69
2021/10/09 08:38:50;;;;;;;67.43;48.88;;;10.50;90.80;;;;;;5008265;28;20034;-68
2021/10/09 08:41:16;;;;;;;63.20;51.83;;;10.60;91.10;;;;;;4996794;28;20062;-70
2021/10/09 08:43:44;;;;;;;82.22;53.78;;;10.70;91.10;;;;;;5001175;28;20354;-70
2021/10/09 08:46:10;;;;;;;57.53;47.88;;;10.90;91.40;;;;;;5007188;28;20040;-71
2021/10/09 08:48:41;;;;;;;65.57;50.47;;;10.90;91.10;;;;;;5012828;28;20132;-70
2021/10/09 08:51:08;;;;;;;71.28;48.83;;;10.90;90.80;;;;;;5007519;28;20117;-71
2021/10/09 08:53:43;;;;;;;59.70;47.35;;;10.90;90.10;;;;;;5008835;28;20042;-69
2021/10/09 08:56:26;;;;;;;58.67;48.63;;;10.80;90.20;;;;;;5009099;28;20462;-71
2021/10/09 08:59:08;;;;;;;58.60;48.30;;;10.80;90.60;;;;;;5003080;28;20276;-71
2021/10/09 09:01:57;;;;;;;60.50;49.70;;;11.00;90.70;;;;;;5000563;28;20049;-70
2021/10/09 09:04:49;;;;;;;63.72;51.05;;;11.00;90.10;;;;;;4982860;28;20038;-70
2021/10/09 09:35:22;;;;;;;53.45;45.50;;;12.20;85.90;;;;;;4981847;28;20739;-70
2021/10/09 09:40:43;;;;;;;60.78;50.33;;;12.10;86.00;;;;;;5003726;28;20647;-69
2021/10/09 09:43:11;;;;;;;56.83;48.00;;;11.90;87.70;;;;;;5003876;28;20525;-69
2021/10/09 09:45:39;;;;;;;62.40;55.20;;;12.00;87.30;;;;;;5000346;28;20393;-71
2021/10/09 09:48:06;;;;;;;63.80;56.88;;;12.10;87.80;;;;;;5006109;28;20121;-69
2021/10/09 09:50:33;;;;;;;55.28;47.03;;;12.40;87.80;;;;;;5005518;28;20164;-71
2021/10/09 09:53:04;;;;;;;54.22;44.30;;;12.60;87.40;;;;;;5003028;28;20115;-75
2021/10/09 09:55:30;;;;;;;54.10;45.42;;;12.70;85.60;;;;;;5001555;28;20473;-70
2021/10/09 09:57:59;;;;;;;53.53;44.63;;;12.60;86.00;;;;;;5001144;28;20038;-69
2021/10/09 10:00:28;;;;;;;56.92;46.22;;;12.20;85.80;;;;;;5004801;28;20042;-70
2021/10/09 10:02:55;;;;;;;54.42;46.58;;;12.30;86.70;;;;;;5002558;28;20033;-69
2021/10/09 10:05:24;;;;;;;54.63;43.88;;;12.40;86.70;;;;;;5001522;28;20120;-70
2021/10/09 10:07:51;;;;;;;58.10;47.65;;;12.40;86.10;;;;;;5001116;28;20527;-72
2021/10/09 10:10:18;;;;;;;55.40;47.58;;;12.40;86.10;;;;;;5007621;28;20038;-70
2021/10/09 10:12:46;;;;;;;56.70;48.03;;;12.70;87.30;;;;;;5005013;28;20034;-70
2021/10/09 10:15:13;;;;;;;57.80;47.22;;;13.10;86.60;;;;;;5006071;28;20034;-69
2021/10/09 10:17:44;;;;;;;60.88;53.83;;;13.40;85.00;;;;;;5004595;28;20033;-69
2021/10/09 10:20:20;;;;;;;49.65;41.85;;;13.60;83.40;;;;;;5001481;28;20045;-68
2021/10/09 10:22:49;;;;;;;44.53;39.63;;;14.00;82.70;;;;;;5005648;28;20128;-68
2021/10/09 10:25:25;;;;;;;46.83;41.03;;;14.20;81.40;;;;;;5001749;28;20042;-72
2021/10/09 10:28:17;;;;;;;50.20;42.78;;;14.10;81.30;;;;;;5002312;28;20120;-69
2021/10/09 10:30:45;;;;;;;47.95;42.85;;;14.30;82.10;;;;;;5002561;28;20034;-71
2021/10/09 10:33:17;;;;;;;47.08;41.88;;;14.30;82.40;;;;;;4999565;28;20104;-69
2021/10/09 10:35:44;;;;;;;46.47;41.38;;;14.40;81.30;;;;;;5000738;28;20061;-72
2021/10/09 10:38:14;;;;;;;47.38;41.95;;;14.50;81.60;;;;;;5001959;28;20099;-70
2021/10/09 10:40:49;;;;;;;47.55;42.03;;;14.60;79.40;;;;;;5002755;28;20026;-69
2021/10/09 10:51:47;;;;;;;47.58;41.13;;;15.20;78.30;;;;;;5001730;28;20069;-70
2021/10/09 10:57:02;;;;;;;64.80;57.97;;;15.00;78.40;;;;;;4997750;28;20052;-71
2021/10/09 10:59:32;;;;;;;59.13;53.03;;;15.10;79.40;;;;;;5001817;28;20050;-71
2021/10/09 11:02:11;;;;;;;54.47;48.83;;;15.30;78.90;;;;;;4982598;28;20038;-71
2021/10/09 11:04:50;;;;;;;45.10;39.60;;;15.60;78.80;;;;;;4975367;28;20026;-69
2021/10/09 11:07:16;;;;;;;48.15;40.50;;;15.60;77.10;;;;;;4979621;28;20133;-73
2021/10/09 11:09:43;;;;;;;44.90;40.03;;;15.20;78.80;;;;;;4984341;28;20360;-71
2021/10/09 11:12:21;;;;;;;46.38;38.35;;;15.50;78.30;;;;;;4982954;28;20069;-74
2021/10/09 11:14:48;;;;;;;45.33;40.35;;;15.50;77.20;;;;;;4982849;28;20042;-70
2021/10/09 11:17:14;;;;;;;45.03;40.05;;;15.70;77.20;;;;;;4987124;28;20529;-70
2021/10/09 11:19:41;;;;;;;46.03;40.38;;;16.00;76.20;;;;;;4980098;28;20027;-71
2021/10/09 11:22:09;;;;;;;43.03;37.90;;;16.10;75.80;;;;;;4984778;28;20046;-70
2021/10/09 11:24:39;;;;;;;47.92;39.38;;;15.80;75.20;;;;;;4985317;28;20034;-72
2021/10/09 11:27:05;;;;;;;45.53;38.78;;;16.00;75.10;;;;;;4987206;28;20501;-71
2021/10/09 11:29:31;;;;;;;47.25;40.63;;;16.00;75.30;;;;;;4974696;28;20050;-72
2021/10/09 11:32:06;;;;;;;43.63;38.80;;;15.90;76.60;;;;;;4988698;28;20117;-72
2021/10/09 11:34:46;;;;;;;50.55;38.70;;;16.00;75.70;;;;;;4982342;28;20031;-69
2021/10/09 11:37:17;;;;;;;44.92;37.88;;;16.10;76.50;;;;;;4985095;28;20053;-74
2021/10/09 11:39:52;;;;;;;45.20;38.30;;;16.30;74.80;;;;;;4986384;28;20034;-69
2021/10/09 11:42:21;;;;;;;;;;;16.10;74.60;;;;;;4981665;28;20035;-69
2021/10/09 11:56:46;;;;;;;43.50;36.88;;;16.60;72.90;;;;;;4986357;28;20038;-69
2021/10/09 11:59:13;;;;;;;43.33;37.55;;;16.70;72.00;;;;;;4984621;28;20117;-70
2021/10/09 12:01:47;;;;;;;41.80;34.50;;;16.80;72.20;;;;;;4984690;28;20038;-70
2021/10/09 12:04:22;;;;;;;46.45;36.55;;;16.90;72.30;;;;;;4982410;28;20061;-71
2021/10/09 12:07:09;;;;;;;42.50;35.33;;;16.80;71.70;;;;;;4982795;28;20527;-71
2021/10/09 12:09:36;;;;;;;44.63;36.58;;;17.00;72.00;;;;;;4986509;28;20096;-69
2021/10/09 12:12:16;;;;;;;40.75;34.25;;;17.10;72.40;;;;;;4983978;28;20121;-70
2021/10/09 12:14:42;;;;;;;41.67;35.80;;;17.30;72.10;;;;;;4982300;28;20046;-69
2021/10/09 12:17:09;;;;;;;41.90;34.65;;;17.50;69.40;;;;;;4985583;28;20052;-70
2021/10/09 12:19:36;;;;;;;39.28;34.08;;;17.40;69.20;;;;;;4984326;28;20038;-69
2021/10/09 12:22:05;;;;;;;44.05;38.33;;;17.30;69.90;;;;;;4981270;28;20035;-71
2021/10/09 12:24:49;;;;;;;43.67;37.85;;;17.40;70.10;;;;;;4987839;28;20562;-71
2021/10/09 12:27:20;;;;;;;39.75;33.88;;;17.60;69.90;;;;;;4981823;28;20077;-69
2021/10/09 12:30:04;;;;;;;41.17;34.03;;;17.60;69.00;;;;;;4987574;28;20118;-70
2021/10/09 12:32:51;;;;;;;52.67;46.70;;;17.60;68.60;;;;;;4999567;28;20136;-69
2021/10/09 12:35:23;;;;;;;39.53;33.92;;;17.60;67.90;;;;;;5001925;28;20066;-70
2021/10/09 12:38:03;;;;;;;42.47;34.60;;;17.70;68.80;;;;;;4999144;28;20044;-71
2021/10/09 12:40:43;;;;;;;40.80;33.08;;;17.80;69.50;;;;;;5005179;28;20243;-69
2021/10/09 12:43:12;;;;;;;39.80;33.15;;;17.70;68.50;;;;;;5005523;28;20038;-69
2021/10/09 12:45:41;;;;;;;39.35;32.88;;;17.80;68.10;;;;;;5009852;28;20034;-76
2021/10/09 12:48:07;;;;;;;38.53;32.55;;;17.80;67.00;;;;;;4997769;28;20196;-77
2021/10/09 12:50:36;;;;;;;42.40;34.33;;;17.90;67.00;;;;;;5001200;28;20521;-71
2021/10/09 12:53:03;;;;;;;35.90;30.90;;;17.80;67.20;;;;;;5001940;28;20050;-71
2021/10/09 12:55:35;;;;;;;37.67;33.15;;;17.90;67.80;;;;;;5002394;28;20057;-72
2021/10/09 12:58:06;;;;;;;36.03;30.35;;;18.10;67.10;;;;;;4994492;28;20482;-71
2021/10/09 13:00:34;;;;;;;34.50;29.05;;;18.10;65.20;;;;;;5001147;28;20074;-70
2021/10/09 13:03:01;;;;;;;36.85;31.63;;;18.10;64.90;;;;;;5002420;28;20503;-70
2021/10/09 13:05:31;;;;;;;35.55;31.10;;;18.00;65.30;;;;;;5003854;28;20125;-73
2021/10/09 13:07:58;;;;;;;39.63;33.03;;;18.00;66.10;;;;;;5003739;28;20120;-70
2021/10/09 13:10:25;;;;;;;37.53;29.92;;;17.80;66.80;;;;;;5001713;28;20095;-71
2021/10/09 13:12:51;;;;;;;37.25;30.98;;;17.80;66.60;;;;;;5002685;28;20080;-70
2021/10/09 13:15:18;;;;;;;36.97;31.52;;;18.00;67.00;;;;;;5001089;28;20073;-71
2021/10/09 13:17:45;;;;;;;39.78;32.83;;;18.10;66.40;;;;;;5007026;28;20064;-70
2021/10/09 13:20:11;;;;;;;35.22;30.00;;;18.10;65.40;;;;;;4999405;28;20096;-71
2021/10/09 13:22:37;;;;;;;34.38;28.15;;;18.10;65.20;;;;;;5003804;28;20049;-76
2021/10/09 13:25:03;;;;;;;34.83;27.55;;;18.00;63.80;;;;;;5003044;28;20072;-73
2021/10/09 13:27:30;;;;;;;32.90;26.90;;;17.90;64.80;;;;;;5000341;28;20387;-72
2021/10/09 13:29:58;;;;;;;35.60;28.08;;;18.10;65.10;;;;;;5000254;28;20132;-71
2021/10/09 13:32:25;;;;;;;31.20;26.88;;;18.10;64.60;;;;;;4999803;28;20065;-70
2021/10/09 13:34:52;;;;;;;32.35;26.38;;;18.10;63.70;;;;;;5002578;28;20026;-70
2021/10/09 13:37:23;;;;;;;37.38;28.55;;;17.80;64.40;;;;;;5007898;28;20034;-70
2021/10/09 13:39:49;;;;;;;36.42;29.88;;;18.00;65.70;;;;;;4999058;28;20069;-70
2021/10/09 13:42:16;;;;;;;34.03;26.77;;;18.10;65.30;;;;;;5002522;28;20112;-71
2021/10/09 13:44:42;;;;;;;34.92;27.67;;;18.10;64.40;;;;;;4997743;28;20100;-70
2021/10/09 13:47:09;;;;;;;33.88;27.08;;;18.00;64.00;;;;;;5001293;28;20050;-72
2021/10/09 13:49:36;;;;;;;35.63;29.00;;;18.10;64.50;;;;;;4998740;28;20112;-71
2021/10/09 13:52:03;;;;;;;37.47;27.02;;;18.10;64.10;;;;;;5005906;28;20081;-72
2021/10/09 13:54:29;;;;;;;32.40;26.50;;;18.00;64.00;;;;;;4996835;28;20057;-71
2021/10/09 13:56:55;;;;;;;28.27;24.13;;;18.10;64.10;;;;;;4995332;28;20041;-71
2021/10/09 13:59:21;;;;;;;27.42;23.85;;;18.10;63.50;;;;;;5001968;28;20038;-72
2021/10/09 14:01:48;;;;;;;30.20;24.65;;;18.10;62.40;;;;;;4997934;28;20545;-71
2021/10/09 14:04:14;;;;;;;27.67;23.00;;;18.00;62.80;;;;;;5012492;28;20045;-70
2021/10/09 14:06:45;;;;;;;30.63;24.52;;;18.00;60.70;;;;;;4997997;28;20041;-73
2021/10/09 14:09:12;;;;;;;29.02;24.17;;;18.10;62.00;;;;;;4986054;28;20038;-72
2021/10/09 14:11:40;;;;;;;26.88;22.60;;;18.10;61.40;;;;;;4981561;28;20165;-71
2021/10/09 14:14:06;;;;;;;26.98;21.63;;;18.10;60.20;;;;;;4984578;28;20065;-70
2021/10/09 14:16:34;;;;;;;26.33;21.15;;;18.00;59.90;;;;;;4981591;28;20057;-70
2021/10/09 14:19:00;;;;;;;27.52;21.40;;;18.10;59.80;;;;;;4983311;28;20042;-73
2021/10/09 14:21:25;;;;;;;24.55;20.70;;;18.20;59.90;;;;;;4978231;28;20048;-70
2021/10/09 14:23:52;;;;;;;24.55;19.45;;;18.20;61.00;;;;;;4981402;28;20398;-69
2021/10/09 14:26:18;;;;;;;26.88;21.27;;;18.10;59.60;;;;;;4979432;28;20031;-69
2021/10/09 15:19:33;;;;;;;32.13;23.88;;;18.10;61.40;;;;;;4986600;28;20033;-72
2021/10/09 15:21:59;;;;;;;28.38;22.48;;;18.00;61.60;;;;;;4981742;28;20409;-72
2021/10/09 15:24:24;;;;;;;26.73;22.20;;;17.90;62.20;;;;;;4985201;28;20034;-72
2021/10/09 15:26:50;;;;;;;28.05;20.88;;;17.90;60.30;;;;;;4987254;28;20158;-72
2021/10/09 15:29:15;;;;;;;25.02;21.02;;;17.80;59.00;;;;;;4983772;28;20362;-72
2021/10/09 15:31:41;;;;;;;27.35;21.00;;;17.80;59.60;;;;;;4985574;28;20042;-73
2021/10/09 15:34:07;;;;;;;24.42;19.45;;;17.80;60.30;;;;;;4984022;28;20062;-73
2021/10/09 15:36:33;;;;;;;24.10;18.98;;;17.80;59.30;;;;;;5001385;28;20035;-73
2021/10/09 15:38:58;;;;;;;24.45;19.35;;;17.70;59.70;;;;;;4987062;28;20445;-73
2021/10/09 15:41:25;;;;;;;28.65;20.88;;;17.70;60.30;;;;;;4984232;28;20034;-73
2021/10/09 15:43:51;;;;;;;28.27;21.00;;;17.60;59.90;;;;;;4985429;28;20141;-76
2021/10/09 15:46:17;;;;;;;27.13;20.98;;;17.60;60.50;;;;;;4985478;28;20034;-73
2021/10/09 15:48:42;;;;;;;30.23;22.45;;;17.50;61.00;;;;;;4981692;28;20043;-72